Time;durP1;ratioP1;P1;durP2;ratioP2;P2;SDS_P1;SDS_P2;PMS_P1;PMS_P2;Temp;Humidity;BMP_temperature;BMP_pressure;BME280_temperature;BME280_humidity;BME280_pressure;Samples;Min_cycle;Max_cycle;Signal;HPM_P1;HPM_P2
2022/03/30 00:01:03;;;;;;;44.70;29.20;;;;;;;3.99;69.86;99321.98;105608;1279;26511;-78
2022/03/30 00:03:30;;;;;;;46.30;29.10;;;;;;;3.98;69.88;99323.56;106209;1273;25440;-84
2022/03/30 00:05:58;;;;;;;40.60;28.40;;;;;;;3.98;69.95;99323.05;106069;1273;22832;-71
2022/03/30 00:08:25;;;;;;;41.40;28.70;;;;;;;3.95;69.95;99324.61;106127;1274;25244;-77
2022/03/30 00:10:52;;;;;;;41.40;27.20;;;;;;;3.92;70.11;99319.20;105937;1278;22560;-77
2022/03/30 00:13:19;;;;;;;46.60;30.40;;;;;;;3.85;70.08;99317.11;105696;1276;25346;-74
2022/03/30 00:15:46;;;;;;;43.40;28.10;;;;;;;3.82;70.44;99319.70;105818;1277;25245;-76
2022/03/30 00:18:14;;;;;;;47.00;28.70;;;;;;;3.84;70.68;99318.49;105872;1276;22560;-79
2022/03/30 00:20:42;;;;;;;51.20;30.80;;;;;;;3.81;70.46;99316.58;105292;1284;24340;-79
2022/03/30 00:23:09;;;;;;;50.10;30.50;;;;;;;3.77;70.65;99315.88;104950;1287;22623;-78
2022/03/30 00:25:37;;;;;;;46.70;30.00;;;;;;;3.75;70.63;99315.70;105159;1287;22618;-77
2022/03/30 00:28:04;;;;;;;50.00;32.20;;;;;;;3.74;70.94;99313.79;105210;1288;22614;-77
2022/03/30 00:30:31;;;;;;;45.30;30.40;;;;;;;3.75;70.92;99313.77;105368;1285;24257;-75
2022/03/30 00:32:59;;;;;;;45.10;29.60;;;;;;;3.74;70.90;99315.70;105547;1284;22551;-76
2022/03/30 00:35:27;;;;;;;40.20;27.90;;;;;;;3.77;71.03;99310.48;104822;1290;25556;-76
2022/03/30 00:37:54;;;;;;;45.60;28.30;;;;;;;3.81;71.05;99312.05;105128;1290;26768;-76
2022/03/30 00:40:21;;;;;;;44.10;27.40;;;;;;;3.80;70.73;99311.70;105573;1287;22623;-76
2022/03/30 00:42:49;;;;;;;44.70;29.80;;;;;;;3.79;70.81;99312.91;105626;1287;25386;-74
2022/03/30 00:45:21;;;;;;;48.30;30.10;;;;;;;3.81;70.95;99315.18;105679;1287;22757;-77
2022/03/30 00:47:48;;;;;;;49.20;30.60;;;;;;;3.84;71.03;99311.19;105453;1281;26508;-78
2022/03/30 00:50:18;;;;;;;51.40;32.40;;;;;;;3.86;70.79;99307.53;105913;1282;25253;-78
2022/03/30 00:52:50;;;;;;;44.40;29.80;;;;;;;3.85;70.81;99308.58;105858;1281;25463;-75
2022/03/30 00:55:18;;;;;;;45.50;27.90;;;;;;;3.81;70.87;99306.99;105945;1282;24276;-74
2022/03/30 00:57:46;;;;;;;47.40;28.00;;;;;;;3.76;70.93;99306.11;105331;1276;24099;-77
2022/03/30 01:00:16;;;;;;;51.20;30.20;;;;;;;3.76;71.09;99305.43;105313;1285;24276;-77
2022/03/30 01:02:46;;;;;;;46.30;30.10;;;;;;;3.74;71.15;99305.95;105394;1284;25435;-76
2022/03/30 01:05:16;;;;;;;41.30;28.70;;;;;;;3.74;71.20;99307.35;105303;1285;22563;-76
2022/03/30 01:07:44;;;;;;;35.90;25.90;;;;;;;3.80;71.35;99304.38;104793;1288;24221;-77
2022/03/30 01:10:13;;;;;;;38.20;26.00;;;;;;;3.80;71.06;99301.06;104846;1288;24701;-75
2022/03/30 01:12:40;;;;;;;43.30;27.10;;;;;;;3.69;71.16;99304.02;104748;1284;24218;-77
2022/03/30 01:15:12;;;;;;;50.10;30.80;;;;;;;3.65;71.31;99296.38;105312;1284;22694;-75
2022/03/30 01:17:40;;;;;;;40.90;26.60;;;;;;;3.68;71.51;99297.06;104797;1285;23412;-77
2022/03/30 01:20:11;;;;;;;49.60;29.80;;;;;;;3.67;71.45;99299.84;105165;1284;24753;-77
2022/03/30 01:22:39;;;;;;;42.50;26.30;;;;;;;3.65;71.55;99298.80;105144;1284;23542;-82
2022/03/30 01:25:08;;;;;;;49.60;31.20;;;;;;;3.58;71.47;99296.88;105000;1282;24790;-74
2022/03/30 01:27:36;;;;;;;49.00;30.90;;;;;;;3.54;71.73;99293.90;105321;1282;22542;-76
2022/03/30 01:32:59;;;;;;;46.00;29.50;;;;;;;3.52;71.84;99297.02;105593;1281;25369;-76
2022/03/30 01:35:26;;;;;;;48.90;30.60;;;;;;;3.52;71.93;99294.94;105763;1273;22867;-80
2022/03/30 01:37:55;;;;;;;46.60;30.10;;;;;;;3.53;71.95;99289.89;106076;1273;22540;-80
2022/03/30 01:40:23;;;;;;;42.70;28.80;;;;;;;3.56;72.11;99286.24;106064;1274;25440;-79
2022/03/30 01:42:50;;;;;;;46.10;29.00;;;;;;;3.55;71.99;99284.33;106138;1273;25303;-77
2022/03/30 01:45:18;;;;;;;42.00;28.90;;;;;;;3.51;72.00;99282.40;106095;1273;25471;-78
2022/03/30 01:47:51;;;;;;;47.50;31.80;;;;;;;3.47;72.05;99280.33;106275;1273;25365;-78
2022/03/30 01:50:19;;;;;;;47.50;29.90;;;;;;;3.43;72.13;99275.77;106119;1274;22717;-78
2022/03/30 01:52:46;;;;;;;48.70;30.50;;;;;;;3.44;72.27;99269.35;106105;1274;22550;-81
2022/03/30 01:55:14;;;;;;;49.90;29.60;;;;;;;3.50;72.31;99270.20;105984;1274;22551;-79
2022/03/30 01:57:43;;;;;;;44.00;29.80;;;;;;;3.55;72.26;99268.65;106176;1274;22570;-82
2022/03/30 02:00:15;;;;;;;43.10;28.30;;;;;;;3.56;72.12;99261.88;105886;1279;25443;-82
2022/03/30 02:02:44;;;;;;;47.90;31.10;;;;;;;3.57;71.96;99259.78;105781;1279;23078;-83
2022/03/30 02:05:12;;;;;;;44.90;31.30;;;;;;;3.56;72.06;99259.61;106284;1281;25599;-80
2022/03/30 02:07:39;;;;;;;49.80;30.10;;;;;;;3.58;72.04;99256.30;106028;1279;24253;-77
2022/03/30 02:10:10;;;;;;;47.40;29.10;;;;;;;3.57;71.95;99252.48;105801;1281;23974;-74
2022/03/30 02:12:38;;;;;;;48.20;28.70;;;;;;;3.54;71.79;99249.86;105841;1279;22776;-76
2022/03/30 02:15:09;;;;;;;41.50;26.10;;;;;;;3.51;71.89;99246.73;105573;1279;24259;-81
2022/03/30 02:17:38;;;;;;;50.00;30.50;;;;;;;3.51;71.86;99245.67;105860;1274;24221;-83
2022/03/30 02:20:09;;;;;;;53.50;30.50;;;;;;;3.52;72.11;99241.33;106099;1273;24234;-80
2022/03/30 02:22:36;;;;;;;39.10;26.60;;;;;;;3.55;72.17;99239.23;106092;1274;24230;-78
2022/03/30 02:25:05;;;;;;;39.00;27.60;;;;;;;3.54;71.57;99240.29;106280;1273;22609;-78
2022/03/30 02:27:33;;;;;;;46.20;30.00;;;;;;;3.49;71.79;99237.14;106319;1272;22550;-77
2022/03/30 02:30:01;;;;;;;41.50;28.00;;;;;;;3.47;71.81;99233.14;106385;1272;22610;-76
2022/03/30 02:32:28;;;;;;;53.60;31.10;;;;;;;3.42;71.79;99236.61;105782;1278;23893;-78
2022/03/30 02:34:55;;;;;;;41.00;26.60;;;;;;;3.41;71.91;99229.48;105348;1284;24421;-79
2022/03/30 02:37:23;;;;;;;52.70;32.40;;;;;;;3.48;72.10;99234.88;105372;1281;24189;-80
2022/03/30 02:39:50;;;;;;;46.00;30.50;;;;;;;3.57;72.17;99233.48;105468;1282;24786;-78
2022/03/30 02:42:18;;;;;;;53.00;34.00;;;;;;;3.59;71.73;99226.87;105528;1283;26499;-77
2022/03/30 02:44:45;;;;;;;57.50;33.30;;;;;;;3.62;71.96;99226.01;105352;1282;24235;-81
2022/03/30 02:47:13;;;;;;;47.70;30.90;;;;;;;3.70;71.89;99223.41;105524;1281;24268;-78
2022/03/30 02:49:40;;;;;;;44.20;30.40;;;;;;;3.71;71.62;99224.79;104722;1288;25620;-81
2022/03/30 02:52:07;;;;;;;54.20;32.60;;;;;;;3.64;71.37;99222.52;105392;1282;22539;-78
2022/03/30 02:54:35;;;;;;;52.00;31.50;;;;;;;3.62;71.52;99219.05;105652;1279;22545;-72
2022/03/30 02:57:02;;;;;;;48.90;32.50;;;;;;;3.65;71.65;99218.36;105650;1279;23956;-76
2022/03/30 02:59:29;;;;;;;52.40;32.10;;;;;;;3.68;71.53;99214.00;105552;1281;25682;-77
2022/03/30 03:01:58;;;;;;;52.80;33.10;;;;;;;3.70;71.29;99217.14;105673;1279;24319;-74
2022/03/30 03:04:25;;;;;;;48.80;30.90;;;;;;;3.67;71.29;99216.78;105673;1281;23937;-76
2022/03/30 03:06:52;;;;;;;50.20;30.50;;;;;;;3.67;71.44;99216.27;105282;1282;25402;-76
2022/03/30 03:09:20;;;;;;;49.00;31.80;;;;;;;3.70;71.49;99217.30;105878;1276;25708;-77
2022/03/30 03:11:47;;;;;;;45.90;28.80;;;;;;;3.77;71.44;99221.48;105805;1276;22560;-82
2022/03/30 03:14:15;;;;;;;46.70;30.50;;;;;;;3.77;71.30;99219.39;105679;1277;24319;-78
2022/03/30 03:16:42;;;;;;;47.90;31.10;;;;;;;3.75;71.23;99219.91;105760;1279;23440;-81
2022/03/30 03:19:12;;;;;;;50.00;31.30;;;;;;;3.74;71.12;99221.31;105958;1276;22907;-79
2022/03/30 03:21:40;;;;;;;49.70;29.90;;;;;;;3.71;70.97;99218.70;105782;1277;25236;-80
2022/03/30 03:24:07;;;;;;;46.90;30.90;;;;;;;3.69;71.04;99215.05;106175;1276;23224;-79
2022/03/30 03:26:35;;;;;;;52.40;32.60;;;;;;;3.70;71.08;99212.08;106635;1273;24246;-76
2022/03/30 03:29:02;;;;;;;45.00;31.60;;;;;;;3.76;71.28;99207.90;106751;1273;22691;-76
2022/03/30 03:31:29;;;;;;;45.30;31.40;;;;;;;3.81;71.02;99205.29;106892;1273;24045;-77
2022/03/30 03:33:56;;;;;;;44.50;29.40;;;;;;;3.84;70.87;99209.29;106559;1273;25295;-79
2022/03/30 03:36:23;;;;;;;44.60;29.30;;;;;;;3.75;70.51;99212.61;106297;1273;25219;-81
2022/03/30 03:38:51;;;;;;;47.60;31.00;;;;;;;3.66;70.70;99212.44;105960;1277;24696;-83
2022/03/30 03:41:19;;;;;;;53.80;33.80;;;;;;;3.68;71.09;99218.19;105651;1280;25661;-75
2022/03/30 03:43:47;;;;;;;48.80;31.40;;;;;;;3.68;70.91;99215.58;105719;1279;22855;-78
2022/03/30 03:46:15;;;;;;;57.20;31.60;;;;;;;3.59;70.82;99209.81;105966;1278;22807;-78
2022/03/30 03:48:43;;;;;;;46.50;32.20;;;;;;;3.56;70.91;99209.12;105986;1279;24230;-80
2022/03/30 03:51:10;;;;;;;45.40;30.00;;;;;;;3.51;70.86;99204.41;105852;1279;22634;-81
2022/03/30 03:53:38;;;;;;;39.50;26.30;;;;;;;3.47;71.18;99206.33;105666;1279;23944;-81
2022/03/30 03:56:06;;;;;;;39.70;28.10;;;;;;;3.46;70.98;99201.98;105957;1278;24065;-82
2022/03/30 03:58:34;;;;;;;43.30;29.10;;;;;;;3.42;70.96;99199.18;105970;1279;26486;-81
2022/03/30 04:01:01;;;;;;;41.60;26.60;;;;;;;3.38;71.08;99199.02;105151;1285;24280;-82
2022/03/30 04:03:29;;;;;;;46.90;29.30;;;;;;;3.32;71.00;99194.83;105128;1282;22632;-78
2022/03/30 04:05:56;;;;;;;51.70;32.40;;;;;;;3.28;71.20;99193.61;105394;1282;25395;-78
2022/03/30 04:08:23;;;;;;;51.90;33.30;;;;;;;3.33;71.46;99200.75;105114;1282;26515;-82
2022/03/30 04:10:53;;;;;;;49.90;31.60;;;;;;;3.40;71.57;99198.84;105259;1282;24233;-85
2022/03/30 04:13:20;;;;;;;47.90;31.40;;;;;;;3.49;71.50;99202.69;105187;1282;25467;-77
2022/03/30 04:15:48;;;;;;;46.90;29.10;;;;;;;3.50;71.22;99197.80;105226;1285;25386;-78
2022/03/30 04:18:21;;;;;;;46.90;30.50;;;;;;;3.43;70.88;99197.27;105736;1277;22673;-80
2022/03/30 04:20:48;;;;;;;57.60;35.70;;;;;;;3.32;70.98;99197.78;106023;1274;26616;-81
2022/03/30 04:23:15;;;;;;;51.70;31.30;;;;;;;3.24;71.12;99200.23;106114;1274;22539;-78
2022/03/30 04:25:43;;;;;;;54.00;32.40;;;;;;;3.17;71.31;99200.90;106032;1274;24249;-80
2022/03/30 04:28:10;;;;;;;57.90;32.60;;;;;;;3.16;71.57;99200.36;106024;1273;22525;-85
2022/03/30 04:30:38;;;;;;;50.20;30.60;;;;;;;3.22;71.70;99202.83;105945;1279;23919;-81
2022/03/30 04:33:05;;;;;;;52.70;30.30;;;;;;;3.16;71.47;99205.77;105813;1279;22551;-79
2022/03/30 04:35:33;;;;;;;54.50;25.80;;;;;;;3.09;71.63;99201.92;105696;1279;22660;-78
2022/03/30 04:38:00;;;;;;;51.50;30.80;;;;;;;2.99;71.47;99197.90;105692;1279;24101;-81
2022/03/30 04:40:28;;;;;;;52.90;32.90;;;;;;;2.89;71.84;99199.27;105556;1279;24331;-80
2022/03/30 04:42:56;;;;;;;48.40;32.50;;;;;;;2.86;72.18;99201.52;105643;1279;22577;-86
2022/03/30 04:45:24;;;;;;;41.80;26.70;;;;;;;2.90;72.25;99201.18;105589;1279;24220;-77
2022/03/30 04:47:53;;;;;;;49.10;32.50;;;;;;;2.91;72.16;99200.84;105767;1280;26647;-86
2022/03/30 04:50:30;;;;;;;49.10;31.80;;;;;;;2.90;72.24;99204.13;106196;1273;25362;-80
2022/03/30 04:52:58;;;;;;;55.20;31.20;;;;;;;2.93;72.21;99206.40;106752;1272;23553;-82
2022/03/30 04:55:26;;;;;;;50.70;32.60;;;;;;;2.93;72.06;99202.75;106184;1274;22533;-81
2022/03/30 04:57:53;;;;;;;52.50;31.70;;;;;;;2.90;72.35;99205.35;105886;1273;25480;-80
2022/03/30 05:00:21;;;;;;;49.90;28.60;;;;;;;2.94;72.17;99202.92;106221;1273;22691;-78
2022/03/30 05:02:49;;;;;;;40.50;25.70;;;;;;;2.90;72.08;99200.66;106094;1274;22544;-80
2022/03/30 05:05:16;;;;;;;53.30;33.10;;;;;;;2.88;72.23;99207.43;106194;1273;22525;-81
2022/03/30 05:07:44;;;;;;;50.10;32.40;;;;;;;2.88;72.45;99208.83;105600;1279;26582;-83
2022/03/30 05:10:15;;;;;;;48.90;31.20;;;;;;;2.94;72.41;99204.66;105301;1282;25485;-80
2022/03/30 05:12:43;;;;;;;47.80;30.20;;;;;;;2.95;72.36;99209.36;105154;1285;22576;-76
2022/03/30 05:15:12;;;;;;;39.80;24.30;;;;;;;2.93;72.35;99211.95;105246;1282;23319;-78
2022/03/30 05:17:44;;;;;;;48.10;29.00;;;;;;;2.92;72.41;99208.84;105079;1282;22583;-80
2022/03/30 05:20:20;;;;;;;46.70;28.80;;;;;;;3.00;72.50;99215.65;105290;1282;22711;-86
2022/03/30 05:22:47;;;;;;;;;;;;;;;3.03;72.40;99217.20;105095;1282;24057;-81
2022/03/30 05:25:19;;;;;;;51.80;32.50;;;;;;;3.06;72.56;99215.32;105339;1276;22549;-81
2022/03/30 05:27:47;;;;;;;48.60;31.60;;;;;;;3.11;72.45;99217.58;105799;1273;24258;-80
2022/03/30 05:30:15;;;;;;;50.30;32.80;;;;;;;3.13;72.47;99221.23;106153;1274;22724;-80
2022/03/30 05:32:45;;;;;;;42.60;28.30;;;;;;;3.16;72.34;99222.82;105603;1279;22742;-80
2022/03/30 05:35:14;;;;;;;50.20;33.50;;;;;;;3.23;72.38;99220.75;105647;1279;25361;-79
2022/03/30 05:37:46;;;;;;;46.90;32.00;;;;;;;3.34;72.43;99227.20;105533;1279;24234;-82
2022/03/30 05:40:15;;;;;;;51.20;31.50;;;;;;;3.50;72.39;99224.59;106073;1279;24482;-94
2022/03/30 05:42:43;;;;;;;51.80;33.50;;;;;;;3.54;71.79;99225.48;107776;1279;22607;-92
2022/03/30 05:45:12;;;;;;;52.60;31.80;;;;;;;3.54;71.59;99232.62;107061;1279;22728;-93
2022/03/30 05:47:45;;;;;;;50.20;31.40;;;;;;;3.50;71.37;99233.48;107140;1279;23140;-92
2022/03/30 05:50:36;;;;;;;49.70;31.60;;;;;;;3.48;71.47;99236.79;107214;1279;22472;-92
2022/03/30 05:53:04;;;;;;;47.60;30.60;;;;;;;3.52;71.44;99238.89;107371;1279;22564;-90
2022/03/30 05:55:32;;;;;;;42.00;27.50;;;;;;;3.59;71.39;99237.67;107446;1281;22623;-90
2022/03/30 05:58:12;;;;;;;57.20;34.60;;;;;;;3.62;71.05;99238.89;108209;1274;24221;-92
2022/03/30 06:00:44;;;;;;;52.10;33.20;;;;;;;3.66;71.36;99241.70;108170;1276;23176;-90
2022/03/30 06:03:16;;;;;;;43.50;29.70;;;;;;;3.69;71.16;99237.33;108321;1276;22585;-89
2022/03/30 06:05:53;;;;;;;51.00;33.00;;;;;;;3.73;71.07;99236.64;108558;1276;22614;-91
2022/03/30 06:08:42;;;;;;;52.20;32.00;;;;;;;3.72;70.70;99234.38;108098;1278;22602;-93
2022/03/30 06:11:18;;;;;;;48.50;29.70;;;;;;;3.76;70.77;99233.69;107720;1279;22708;-92
2022/03/30 06:13:56;;;;;;;53.50;32.50;;;;;;;3.81;70.55;99229.66;107119;1287;23358;-92
2022/03/30 06:16:27;;;;;;;41.70;27.40;;;;;;;3.85;70.33;99233.85;106993;1287;23475;-93
2022/03/30 06:19:20;;;;;;;49.30;31.40;;;;;;;3.80;70.27;99232.80;106957;1290;22587;-95
2022/03/30 06:30:32;;;;;;;42.80;28.60;;;;;;;4.19;69.92;99232.07;106114;1291;24188;-92
2022/03/30 06:33:00;;;;;;;48.00;26.20;;;;;;;4.26;69.56;99234.15;106390;1287;22746;-92
2022/03/30 06:35:30;;;;;;;48.80;29.70;;;;;;;4.32;69.15;99237.10;107167;1281;26518;-92
2022/03/30 06:38:00;;;;;;;44.30;28.70;;;;;;;4.38;68.64;99235.17;107957;1281;22577;-92
2022/03/30 06:40:28;;;;;;;37.10;23.30;;;;;;;4.37;68.29;99229.26;108912;1281;22583;-92
2022/03/30 06:43:00;;;;;;;43.40;29.00;;;;;;;4.35;68.02;99235.52;108341;1277;24106;-90
2022/03/30 06:45:31;;;;;;;36.10;23.10;;;;;;;4.36;67.93;99237.63;108818;1281;22508;-92
2022/03/30 06:48:26;;;;;;;45.20;28.20;;;;;;;4.39;67.87;99239.88;108922;1282;23146;-91
2022/03/30 06:50:56;;;;;;;37.60;25.20;;;;;;;4.48;67.69;99236.55;109086;1281;22492;-90
2022/03/30 06:53:30;;;;;;;44.10;27.60;;;;;;;4.56;67.59;99238.61;109007;1281;22499;-90
2022/03/30 06:55:58;;;;;;;47.70;29.00;;;;;;;4.67;67.32;99239.98;108299;1287;22614;-90
2022/03/30 06:58:26;;;;;;;40.60;25.80;;;;;;;4.73;66.68;99244.48;108063;1290;22583;-92
2022/03/30 07:00:56;;;;;;;41.20;24.90;;;;;;;4.73;66.49;99243.45;108171;1287;22572;-93
2022/03/30 07:03:29;;;;;;;42.00;27.20;;;;;;;4.76;66.29;99243.60;108452;1282;22636;-93
2022/03/30 07:06:08;;;;;;;37.10;23.40;;;;;;;4.84;66.37;99245.83;108911;1282;22714;-93
2022/03/30 07:11:22;;;;;;;38.50;23.30;;;;;;;4.99;65.89;99247.17;108675;1282;22786;-92
2022/03/30 07:13:52;;;;;;;43.30;26.30;;;;;;;5.09;65.58;99250.44;109038;1276;22402;-92
2022/03/30 07:16:40;;;;;;;41.00;24.80;;;;;;;5.18;65.52;99245.33;108735;1277;23128;-91
2022/03/30 07:19:08;;;;;;;37.80;23.10;;;;;;;5.30;65.07;99250.85;107764;1277;22519;-91
2022/03/30 07:21:36;;;;;;;40.00;23.10;;;;;;;5.39;65.02;99255.14;107389;1277;22662;-91
2022/03/30 07:24:04;;;;;;;34.90;21.00;;;;;;;5.49;64.65;99250.20;107948;1277;23573;-90
2022/03/30 07:26:31;;;;;;;39.50;23.10;;;;;;;5.54;63.86;99252.27;107750;1277;22981;-90
2022/03/30 07:28:59;;;;;;;31.90;20.40;;;;;;;5.64;63.47;99252.55;106743;1282;22829;-92
2022/03/30 07:31:28;;;;;;;36.10;19.90;;;;;;;5.69;63.00;99253.20;106874;1279;22538;-90
2022/03/30 07:33:58;;;;;;;30.80;17.20;;;;;;;5.77;62.35;99252.80;106919;1279;22566;-93
2022/03/30 07:36:27;;;;;;;28.00;16.80;;;;;;;5.81;61.84;99255.22;106620;1279;22566;-90
2022/03/30 07:38:57;;;;;;;26.20;15.80;;;;;;;5.89;61.42;99251.30;106940;1283;22497;-92
2022/03/30 07:41:26;;;;;;;25.30;14.20;;;;;;;5.93;61.14;99255.65;106585;1285;25324;-91
2022/03/30 07:43:54;;;;;;;18.70;12.70;;;;;;;6.03;60.64;99263.09;106481;1284;24128;-91
2022/03/30 07:46:22;;;;;;;16.60;10.00;;;;;;;6.07;59.66;99264.29;106451;1279;22779;-91
2022/03/30 07:48:52;;;;;;;19.70;12.20;;;;;;;6.09;59.16;99263.40;106526;1282;25305;-91
2022/03/30 07:51:20;;;;;;;22.90;13.20;;;;;;;6.15;58.96;99265.10;106682;1282;22916;-91
2022/03/30 07:53:49;;;;;;;16.90;10.50;;;;;;;6.25;57.90;99265.01;106440;1282;24246;-92
2022/03/30 07:56:16;;;;;;;22.80;13.00;;;;;;;6.33;57.41;99263.01;106509;1280;22697;-91
2022/03/30 07:58:46;;;;;;;19.40;11.40;;;;;;;6.39;56.78;99264.87;107230;1280;22858;-90
2022/03/30 08:01:14;;;;;;;21.50;12.50;;;;;;;6.46;56.73;99267.25;107410;1278;22642;-92
2022/03/30 08:03:44;;;;;;;18.70;10.20;;;;;;;6.54;55.81;99265.77;107247;1278;22684;-90
2022/03/30 08:06:13;;;;;;;21.60;11.60;;;;;;;6.57;55.35;99266.25;107461;1274;24280;-91
2022/03/30 08:08:42;;;;;;;19.20;12.10;;;;;;;6.65;55.66;99269.50;108513;1273;22529;-89
2022/03/30 08:11:09;;;;;;;26.90;11.50;;;;;;;6.73;55.25;99268.70;108507;1273;22798;-92
2022/03/30 08:13:43;;;;;;;17.90;10.20;;;;;;;6.85;55.18;99269.27;108217;1276;22551;-91
2022/03/30 08:16:14;;;;;;;23.70;10.60;;;;;;;6.99;54.94;99274.54;108604;1276;22545;-92
2022/03/30 08:18:49;;;;;;;20.80;10.40;;;;;;;7.16;54.99;99270.63;108954;1276;22585;-91
2022/03/30 08:27:38;;;;;;;16.70;8.40;;;;;;;7.43;52.90;99268.34;105487;1269;5160456;-90
2022/03/30 08:30:06;;;;;;;19.30;8.50;;;;;;;7.48;52.69;99266.36;109030;1282;22638;-93
2022/03/30 08:32:36;;;;;;;14.50;7.60;;;;;;;7.57;52.53;99269.55;108822;1282;22561;-91
2022/03/30 08:35:08;;;;;;;13.80;6.50;;;;;;;7.69;52.05;99269.38;108563;1283;23205;-93
2022/03/30 08:37:39;;;;;;;17.70;7.40;;;;;;;7.75;51.24;99264.56;108520;1281;22681;-93
2022/03/30 08:40:18;;;;;;;16.70;8.00;;;;;;;7.83;51.62;99263.02;108035;1284;22565;-90
2022/03/30 08:42:52;;;;;;;15.40;6.60;;;;;;;7.99;51.20;99258.21;108194;1282;22591;-92
2022/03/30 08:45:23;;;;;;;18.80;7.00;;;;;;;8.06;49.93;99259.49;107957;1282;22931;-90
2022/03/30 08:47:52;;;;;;;8.30;5.80;;;;;;;7.98;49.38;99262.42;108899;1277;22382;-92
2022/03/30 08:50:20;;;;;;;14.60;7.20;;;;;;;7.91;49.35;99265.87;108423;1277;22541;-90
2022/03/30 08:52:49;;;;;;;16.20;7.90;;;;;;;7.85;49.58;99259.14;108198;1281;22545;-92
2022/03/30 08:55:20;;;;;;;13.40;6.40;;;;;;;7.87;49.52;99257.70;108117;1287;22640;-88
2022/03/30 08:57:50;;;;;;;14.20;7.40;;;;;;;7.99;49.16;99258.73;107936;1287;22613;-93
2022/03/30 09:00:34;;;;;;;15.90;7.10;;;;;;;8.10;49.25;99256.80;107506;1293;23109;-88
2022/03/30 09:03:09;;;;;;;15.10;6.60;;;;;;;8.15;49.25;99264.42;107339;1292;23102;-91
2022/03/30 09:05:37;;;;;;;11.60;6.40;;;;;;;8.14;48.44;99265.84;107293;1293;22594;-89
2022/03/30 09:08:11;;;;;;;10.70;6.20;;;;;;;8.20;47.82;99259.95;107388;1293;22705;-90
2022/03/30 09:10:44;;;;;;;13.00;6.20;;;;;;;8.39;47.62;99268.21;106491;1294;24805;-91
2022/03/30 09:13:17;;;;;;;17.90;8.00;;;;;;;8.52;47.57;99265.86;106230;1294;22500;-89
2022/03/30 09:15:50;;;;;;;14.90;7.10;;;;;;;8.60;46.76;99254.34;106414;1291;23477;-91
2022/03/30 09:18:19;;;;;;;13.80;7.40;;;;;;;8.57;46.59;99255.63;106204;1296;22619;-89
2022/03/30 09:20:57;;;;;;;10.70;5.70;;;;;;;8.50;47.07;99263.10;106731;1291;25299;-90
2022/03/30 09:23:26;;;;;;;14.10;6.30;;;;;;;8.50;46.93;99262.92;107153;1289;23474;-92
2022/03/30 09:25:55;;;;;;;18.90;6.60;;;;;;;8.53;46.63;99257.96;107783;1285;23138;-90
2022/03/30 09:28:23;;;;;;;15.20;7.50;;;;;;;8.53;45.84;99244.99;107835;1287;25419;-90
2022/03/30 09:30:52;;;;;;;16.50;6.60;;;;;;;8.61;45.18;99247.67;108019;1287;23155;-91
2022/03/30 09:33:23;;;;;;;15.30;7.10;;;;;;;8.64;45.64;99250.58;107551;1290;22598;-90
2022/03/30 09:35:50;;;;;;;17.10;6.60;;;;;;;8.74;45.16;99242.83;107591;1284;22584;-92
2022/03/30 09:38:20;;;;;;;12.70;5.40;;;;;;;8.73;45.68;99242.52;108326;1284;22604;-90
2022/03/30 09:40:56;;;;;;;10.20;4.90;;;;;;;8.85;45.21;99245.42;108345;1284;22551;-91
2022/03/30 09:43:29;;;;;;;9.20;5.00;;;;;;;8.81;44.39;99246.21;108691;1283;22713;-88
2022/03/30 09:46:22;;;;;;;12.90;5.60;;;;;;;8.68;44.50;99238.77;108514;1284;22564;-89
2022/03/30 09:48:50;;;;;;;12.70;5.90;;;;;;;8.60;44.67;99245.23;108662;1272;23033;-92
2022/03/30 09:51:35;;;;;;;12.10;5.80;;;;;;;8.74;44.87;99242.15;109074;1271;23110;-90
2022/03/30 09:54:07;;;;;;;11.30;5.70;;;;;;;9.06;44.25;99237.10;109494;1269;23491;-93
2022/03/30 09:56:39;;;;;;;11.80;5.60;;;;;;;9.18;44.40;99233.85;109407;1281;22652;-90
2022/03/30 09:59:14;;;;;;;10.10;5.60;;;;;;;9.23;44.06;99234.29;109109;1281;22572;-92
2022/03/30 10:02:05;;;;;;;13.30;5.80;;;;;;;9.29;43.42;99235.02;108964;1281;23025;-92
2022/03/30 10:04:54;;;;;;;15.70;6.40;;;;;;;9.44;43.06;99233.64;109075;1281;25337;-91
2022/03/30 10:07:24;;;;;;;13.60;5.70;;;;;;;9.58;42.39;99228.39;108361;1287;22791;-91
2022/03/30 10:09:56;;;;;;;11.50;6.60;;;;;;;9.55;42.47;99228.45;108653;1287;22666;-91
2022/03/30 10:12:28;;;;;;;16.80;6.40;;;;;;;9.61;42.81;99229.92;108247;1287;23227;-92
2022/03/30 10:14:59;;;;;;;11.90;6.40;;;;;;;9.65;42.88;99229.98;107977;1287;22658;-93
2022/03/30 10:17:29;;;;;;;11.20;5.50;;;;;;;9.68;43.13;99227.98;107672;1287;22753;-93
2022/03/30 10:20:00;;;;;;;15.50;7.20;;;;;;;9.63;43.20;99226.86;107923;1287;22577;-91
2022/03/30 10:23:02;;;;;;;11.50;5.50;;;;;;;9.61;43.48;99232.55;108372;1283;22935;-93
2022/03/30 10:25:48;;;;;;;11.10;6.10;;;;;;;9.47;42.73;99233.58;107758;1278;22595;-91
2022/03/30 10:28:37;;;;;;;13.70;6.00;;;;;;;9.32;43.15;99232.33;107677;1278;22588;-91
2022/03/30 10:31:05;;;;;;;8.80;4.70;;;;;;;9.22;42.84;99233.80;107133;1284;25279;-91
2022/03/30 10:33:36;;;;;;;10.20;5.10;;;;;;;9.16;43.09;99229.69;106993;1284;23783;-91
2022/03/30 10:36:27;;;;;;;13.30;5.30;;;;;;;9.11;43.12;99223.65;106100;1291;23783;-90
2022/03/30 10:39:15;;;;;;;12.40;5.20;;;;;;;9.07;42.82;99225.15;106493;1291;22619;-91
2022/03/30 10:42:11;;;;;;;12.50;5.60;;;;;;;8.99;42.34;99231.46;106422;1290;24326;-89
2022/03/30 10:44:49;;;;;;;10.60;4.60;;;;;;;9.15;43.01;99226.91;106918;1291;22616;-92
2022/03/30 10:47:26;;;;;;;9.60;4.90;;;;;;;9.40;42.91;99221.07;106226;1290;23533;-92
2022/03/30 10:50:00;;;;;;;8.90;4.40;;;;;;;9.66;42.53;99221.35;106097;1290;22561;-93
2022/03/30 10:52:35;;;;;;;11.40;4.90;;;;;;;9.79;41.94;99223.14;106045;1290;22582;-91
2022/03/30 10:55:12;;;;;;;9.40;5.00;;;;;;;9.73;41.69;99222.23;106292;1288;22682;-92
2022/03/30 10:57:51;;;;;;;12.50;4.50;;;;;;;9.58;41.44;99218.90;106944;1287;22584;-93
2022/03/30 11:00:27;;;;;;;9.30;5.00;;;;;;;9.48;41.81;99222.84;107121;1294;22605;-92
2022/03/30 11:03:21;;;;;;;12.90;5.10;;;;;;;9.55;41.99;99226.86;106698;1293;24440;-91
2022/03/30 11:06:05;;;;;;;12.10;5.30;;;;;;;9.60;41.71;99224.83;106128;1297;22510;-91
2022/03/30 11:08:57;;;;;;;9.20;5.60;;;;;;;9.76;41.30;99226.90;105411;1293;22645;-91
2022/03/30 11:11:50;;;;;;;11.30;5.80;;;;;;;9.88;41.08;99230.66;106118;1297;23089;-92
2022/03/30 11:14:25;;;;;;;9.70;4.30;;;;;;;10.00;41.21;99233.70;105762;1297;24705;-93
2022/03/30 11:17:03;;;;;;;12.00;6.20;;;;;;;10.09;40.96;99232.42;105802;1297;23502;-93
2022/03/30 11:19:55;;;;;;;13.70;6.00;;;;;;;10.19;40.90;99233.74;106507;1288;24432;-94
2022/03/30 11:22:32;;;;;;;11.30;5.80;;;;;;;10.18;40.64;99227.96;107351;1287;22604;-92
2022/03/30 11:25:18;;;;;;;10.50;6.20;;;;;;;10.16;40.86;99226.26;107889;1284;22684;-92
2022/03/30 11:28:05;;;;;;;14.00;5.40;;;;;;;10.23;40.47;99225.38;108036;1284;22607;-92
2022/03/30 11:30:38;;;;;;;12.70;6.00;;;;;;;10.07;40.03;99226.14;107931;1285;22659;-91
2022/03/30 11:33:15;;;;;;;9.40;5.80;;;;;;;9.99;39.81;99225.13;107917;1284;22545;-94
2022/03/30 11:35:43;;;;;;;10.40;5.50;;;;;;;9.86;39.83;99219.83;107583;1284;22723;-90
2022/03/30 11:38:21;;;;;;;11.10;6.70;;;;;;;9.79;39.87;99224.38;107229;1286;22643;-92
2022/03/30 11:41:10;;;;;;;10.50;6.10;;;;;;;9.86;40.40;99223.68;108027;1285;22560;-94
2022/03/30 11:46:30;;;;;;;12.50;6.30;;;;;;;10.08;39.37;99221.35;107127;1286;25419;-92
2022/03/30 11:49:05;;;;;;;9.20;6.60;;;;;;;10.04;39.60;99218.13;106810;1288;22659;-93
2022/03/30 11:51:36;;;;;;;12.40;6.20;;;;;;;10.11;40.10;99219.02;106866;1287;22619;-92
2022/03/30 11:54:19;;;;;;;12.10;5.60;;;;;;;10.20;39.28;99215.43;106441;1291;23827;-95
2022/03/30 11:56:52;;;;;;;9.50;6.10;;;;;;;10.02;39.14;99219.06;105924;1294;22585;-93
2022/03/30 11:59:19;;;;;;;8.40;4.10;;;;;;;9.99;39.22;99214.91;105259;1300;22520;-93
2022/03/30 12:01:54;;;;;;;11.20;5.30;;;;;;;9.86;38.92;99210.84;105476;1299;22742;-92